Maunaloa, Hawaii
Current Conditions -  °F | °C
As of 1:54 AM on Wednesday 26 Nov 2014 (Local Time) from PHMK Reporting Station
Clear Clear  
Wind Chill: 71°   Ceiling: Unl
Heat Index: 71°   Visibility: 10mi
Dew Point: 61°   Wind: 12mph
Humidity: 70%   Direction: 20°NNE
Pressure: 30.04"   Gusts: 20mph
Location:  21.13°N, 157.21°W
Report Text: PHMK 261154Z AUTO 02010G17KT 10SM CLR 22/16 A3004 RMK AO2 SLP175 70006 T02170161 10222 20211 58011 TSNO
Loading
Personal Weather Stations






























Interactive Weather Map New forecast layout! Learn more

10-Day Weather Forecast

Advertisements
Track Severe Weather on mobile